createdAt,value
2019-06-07T00:00:52.553Z,16.95
2019-06-07T00:03:29.727Z,16.94
2019-06-07T00:05:53.726Z,17.20
2019-06-07T00:08:28.588Z,17.54
2019-06-07T00:10:55.994Z,17.57
2019-06-07T00:13:25.692Z,17.65
2019-06-07T00:15:55.470Z,17.85
2019-06-07T00:18:26.100Z,17.74
2019-06-07T00:20:56.677Z,17.64
2019-06-07T00:23:27.514Z,17.58
2019-06-07T00:25:57.229Z,17.63
2019-06-07T00:28:26.912Z,17.52
2019-06-07T00:30:56.605Z,17.30
2019-06-07T00:33:26.295Z,17.06
2019-06-07T00:35:56.979Z,16.88
2019-06-07T00:38:26.711Z,16.90
2019-06-07T00:40:56.500Z,16.88
2019-06-07T00:43:28.566Z,16.84
2019-06-07T00:45:57.594Z,16.81
2019-06-07T00:48:32.588Z,16.74
2019-06-07T00:50:58.828Z,16.63
2019-06-07T00:53:32.099Z,16.63
2019-06-07T00:55:59.979Z,16.77
2019-06-07T00:58:29.849Z,16.79
2019-06-07T01:00:59.634Z,16.71
2019-06-07T01:03:29.400Z,16.65
2019-06-07T01:06:00.339Z,16.61
2019-06-07T01:08:30.394Z,16.56
2019-06-07T01:11:01.220Z,16.51
2019-06-07T01:13:30.915Z,16.52
2019-06-07T01:16:00.618Z,16.53
2019-06-07T01:18:38.406Z,16.58
2019-06-07T01:21:03.003Z,16.57
2019-06-07T01:24:05.509Z,16.53
2019-06-07T01:26:04.294Z,16.48
2019-06-07T01:28:33.999Z,16.50
2019-06-07T01:31:04.674Z,16.47
2019-06-07T01:33:50.448Z,16.44
2019-06-07T01:36:05.815Z,16.38
2019-06-07T01:38:35.515Z,16.26
2019-06-07T01:41:05.410Z,16.22
2019-06-07T01:43:35.180Z,16.35
2019-06-07T01:46:05.963Z,16.42
2019-06-07T01:48:48.879Z,16.39
2019-06-07T01:51:07.058Z,16.31
2019-06-07T01:53:36.755Z,16.28
2019-06-07T01:56:06.528Z,16.27
2019-06-07T01:58:36.316Z,16.22
2019-06-07T02:01:06.175Z,16.13
2019-06-07T02:03:35.872Z,16.07
2019-06-07T02:06:05.677Z,16.15
2019-06-07T02:08:35.388Z,16.22
2019-06-07T02:11:05.253Z,16.21
2019-06-07T02:13:35.108Z,16.19
2019-06-07T02:16:04.874Z,16.34
2019-06-07T02:18:35.196Z,16.44
2019-06-07T02:21:06.017Z,16.42
2019-06-07T02:23:35.791Z,16.39
2019-06-07T02:26:05.631Z,16.30
2019-06-07T02:28:44.964Z,16.33
2019-06-07T02:31:08.096Z,16.21
2019-06-07T02:34:04.901Z,16.01
2019-06-07T02:37:57.489Z,16.03
2019-06-07T02:40:32.353Z,16.03
2019-06-07T02:42:58.847Z,15.93
2019-06-07T02:45:35.415Z,15.84
2019-06-07T02:48:00.267Z,15.76
2019-06-07T02:50:35.439Z,15.70
2019-06-07T02:53:01.393Z,15.71
2019-06-07T02:55:44.397Z,15.76
2019-06-07T02:58:02.678Z,15.90
2019-06-07T03:01:00.799Z,15.94
2019-06-07T03:03:15.814Z,15.88
2019-06-07T03:05:47.558Z,15.85
2019-06-07T03:08:18.291Z,15.87
2019-06-07T03:10:49.844Z,15.76
2019-06-07T03:13:22.655Z,15.67
2019-06-07T03:15:54.739Z,15.56
2019-06-07T03:18:43.622Z,15.59
2019-06-07T03:21:17.444Z,15.64
2019-06-07T03:23:48.001Z,15.76
2019-06-07T03:26:18.551Z,15.74
2019-06-07T03:28:48.726Z,15.71
2019-06-07T03:31:18.407Z,15.65
2019-06-07T03:33:48.110Z,15.52
2019-06-07T03:36:23.864Z,15.46
2019-06-07T03:38:49.544Z,15.55
2019-06-07T03:41:20.201Z,15.68
2019-06-07T03:43:49.910Z,15.70
2019-06-07T03:46:19.674Z,15.60
2019-06-07T03:48:49.382Z,15.40
2019-06-07T03:51:25.258Z,15.24
2019-06-07T03:53:50.556Z,15.19
2019-06-07T03:56:20.247Z,15.01
2019-06-07T03:58:50.678Z,14.91
2019-06-07T04:01:20.549Z,14.85
2019-06-07T04:03:51.657Z,14.84
2019-06-07T04:06:21.846Z,14.95
2019-06-07T04:08:51.590Z,15.27
2019-06-07T04:11:21.265Z,15.41
2019-06-07T04:13:51.004Z,15.43
2019-06-07T04:16:20.697Z,15.72
2019-06-07T04:18:50.462Z,16.62
2019-06-07T04:21:20.146Z,17.39
2019-06-07T04:23:49.864Z,18.12
2019-06-07T04:26:19.551Z,18.76
2019-06-07T04:29:31.591Z,19.24
2019-06-07T04:31:20.663Z,19.64
2019-06-07T04:33:50.738Z,19.95
2019-06-07T04:36:39.450Z,20.21
2019-06-07T04:38:53.963Z,20.42
2019-06-07T04:41:26.672Z,20.91
2019-06-07T04:43:58.886Z,20.91
2019-06-07T04:46:31.551Z,21.21
2019-06-07T04:49:04.721Z,21.58
2019-06-07T04:51:37.235Z,21.84
2019-06-07T04:54:07.458Z,22.01
2019-06-07T04:56:41.452Z,22.25
2019-06-07T04:59:09.789Z,22.58
2019-06-07T05:01:42.326Z,22.97
2019-06-07T05:04:10.953Z,23.41
2019-06-07T05:06:42.465Z,23.82
2019-06-07T05:09:12.150Z,24.01
2019-06-07T05:11:44.987Z,24.15
2019-06-07T05:14:13.365Z,24.41
2019-06-07T05:16:44.276Z,24.74
2019-06-07T05:19:14.598Z,24.89
2019-06-07T05:22:02.405Z,24.79
2019-06-07T05:24:15.778Z,24.78
2019-06-07T05:26:45.539Z,25.09
2019-06-07T05:29:15.247Z,25.47
2019-06-07T05:31:45.998Z,25.55
2019-06-07T05:34:15.689Z,25.56
2019-06-07T05:36:45.457Z,25.75
2019-06-07T05:39:15.244Z,25.65
2019-06-07T05:41:44.909Z,25.63
2019-06-07T05:44:15.239Z,25.63
2019-06-07T05:46:47.409Z,26.05
2019-06-07T05:49:17.353Z,26.50
2019-06-07T05:51:47.147Z,26.71
2019-06-07T05:54:16.847Z,26.64
2019-06-07T05:56:46.551Z,26.62
2019-06-07T05:59:16.266Z,26.97
2019-06-07T06:01:56.289Z,27.22
2019-06-07T06:04:17.353Z,27.48
2019-06-07T06:06:47.658Z,27.67
2019-06-07T06:09:17.554Z,28.11
2019-06-07T06:11:59.533Z,28.11
2019-06-07T06:14:18.761Z,28.07
2019-06-07T06:16:50.051Z,27.98
2019-06-07T06:19:20.048Z,28.09
2019-06-07T06:21:49.823Z,28.53
2019-06-07T06:24:20.130Z,28.61
2019-06-07T06:26:55.077Z,29.02
2019-06-07T06:29:22.420Z,29.34
2019-06-07T06:32:39.850Z,29.18
2019-06-07T06:34:23.617Z,29.20
2019-06-07T06:36:53.404Z,29.39
2019-06-07T06:39:23.175Z,29.37
2019-06-07T06:42:01.078Z,29.69
2019-06-07T06:44:24.427Z,29.66
2019-06-07T06:46:58.041Z,29.72
2019-06-07T06:49:25.620Z,29.91
2019-06-07T06:51:55.465Z,30.07
2019-06-07T06:54:40.148Z,30.64
2019-06-07T06:57:17.763Z,31.12
2019-06-07T06:59:38.758Z,31.25
2019-06-07T07:01:59.501Z,31.12
2019-06-07T07:04:29.503Z,30.99
2019-06-07T07:06:59.304Z,30.59
2019-06-07T07:09:29.561Z,30.91
2019-06-07T07:12:11.331Z,31.19
2019-06-07T07:14:30.809Z,31.09
2019-06-07T07:17:00.524Z,30.66
2019-06-07T07:19:30.328Z,30.61
2019-06-07T07:22:00.094Z,31.13
2019-06-07T07:24:29.776Z,31.66
2019-06-07T07:26:59.507Z,31.76
2019-06-07T07:29:29.212Z,31.77
2019-06-07T07:31:58.919Z,31.74
2019-06-07T07:34:35.750Z,31.79
2019-06-07T07:37:00.170Z,32.04
2019-06-07T07:39:29.992Z,32.05
2019-06-07T07:42:17.864Z,31.92
2019-06-07T07:44:31.139Z,32.03
2019-06-07T07:47:00.837Z,32.40
2019-06-07T07:49:30.576Z,32.57
2019-06-07T07:52:00.378Z,32.50
2019-06-07T07:54:29.860Z,32.68
2019-06-07T07:56:59.594Z,32.66
2019-06-07T07:59:41.775Z,33.10
2019-06-07T08:02:01.664Z,33.06
2019-06-07T08:05:12.951Z,33.00
2019-06-07T08:07:04.179Z,33.02
2019-06-07T08:09:34.008Z,33.35
2019-06-07T08:12:03.822Z,33.50
2019-06-07T08:14:33.554Z,33.78
2019-06-07T08:17:04.346Z,34.02
2019-06-07T08:19:34.141Z,34.18
2019-06-07T08:22:03.955Z,34.14
2019-06-07T08:24:33.787Z,33.66
2019-06-07T08:27:24.554Z,33.65
2019-06-07T08:29:45.067Z,33.16
2019-06-07T08:32:06.631Z,32.97
2019-06-07T08:34:36.441Z,33.26
2019-06-07T08:37:06.296Z,33.18
2019-06-07T08:39:36.122Z,33.41
2019-06-07T08:42:17.874Z,32.99
2019-06-07T08:44:37.267Z,33.01
2019-06-07T08:47:19.788Z,32.97
2019-06-07T08:49:38.579Z,32.95
2019-06-07T08:52:12.256Z,32.74
2019-06-07T08:54:39.915Z,32.46
2019-06-07T08:57:20.679Z,32.64
2019-06-07T08:59:41.311Z,32.06
2019-06-07T09:02:23.277Z,31.58
2019-06-07T09:04:43.262Z,31.50
2019-06-07T09:07:19.502Z,31.63
2019-06-07T09:09:45.599Z,31.86
2019-06-07T09:12:16.355Z,32.11
2019-06-07T09:14:59.628Z,32.38
2019-06-07T09:17:17.507Z,32.75
2019-06-07T09:19:47.302Z,33.01
2019-06-07T09:22:16.999Z,33.20
2019-06-07T09:24:46.715Z,33.59
2019-06-07T09:27:16.592Z,34.01
2019-06-07T09:29:47.151Z,33.63
2019-06-07T09:32:18.649Z,32.95
2019-06-07T09:34:48.295Z,33.03
2019-06-07T09:39:49.760Z,32.90
2019-06-07T09:42:19.597Z,33.12
2019-06-07T09:44:49.372Z,33.07
2019-06-07T09:47:31.154Z,33.04
2019-06-07T09:49:50.577Z,33.33
2019-06-07T09:52:20.297Z,33.92
2019-06-07T09:55:22.226Z,34.05
2019-06-07T09:57:21.541Z,33.81
2019-06-07T09:59:51.471Z,33.50
2019-06-07T10:02:21.347Z,33.57
2019-06-07T10:04:51.074Z,32.96
2019-06-07T10:07:31.127Z,31.70
2019-06-07T10:12:23.950Z,31.87
2019-06-07T10:14:53.708Z,32.04
2019-06-07T10:17:23.423Z,32.69
2019-06-07T10:19:53.275Z,32.72
2019-06-07T10:22:23.015Z,31.95
2019-06-07T10:24:52.854Z,31.70
2019-06-07T10:27:22.718Z,31.76
2019-06-07T10:29:52.510Z,31.49
2019-06-07T10:32:22.326Z,31.77
2019-06-07T10:34:52.075Z,32.04
2019-06-07T10:37:21.889Z,32.14
2019-06-07T10:39:51.719Z,32.42
2019-06-07T10:42:21.468Z,32.58
2019-06-07T10:44:51.191Z,33.10
2019-06-07T10:47:20.939Z,33.08
2019-06-07T10:49:50.734Z,33.30
2019-06-07T10:52:20.509Z,33.06
2019-06-07T10:54:50.207Z,33.34
2019-06-07T10:57:19.928Z,32.96
2019-06-07T10:59:49.725Z,32.90
2019-06-07T11:02:19.506Z,32.86
2019-06-07T11:04:50.035Z,33.01
2019-06-07T11:07:19.833Z,33.03
2019-06-07T11:10:05.607Z,32.71
2019-06-07T11:12:21.037Z,32.87
2019-06-07T11:14:50.763Z,32.75
2019-06-07T11:17:20.472Z,32.60
2019-06-07T11:19:50.253Z,31.57
2019-06-07T11:22:19.955Z,31.04
2019-06-07T11:24:49.878Z,31.47
2019-06-07T11:27:19.792Z,32.03
2019-06-07T11:29:49.454Z,32.41
2019-06-07T11:32:19.198Z,32.39
2019-06-07T11:34:48.914Z,32.40
2019-06-07T11:37:19.156Z,32.11
2019-06-07T11:39:48.996Z,31.60
2019-06-07T11:42:20.196Z,31.43
2019-06-07T11:44:56.621Z,31.41
2019-06-07T11:47:21.371Z,31.69
2019-06-07T11:49:51.095Z,32.07
2019-06-07T11:52:20.835Z,32.38
2019-06-07T11:54:50.563Z,32.52
2019-06-07T11:57:20.281Z,31.40
2019-06-07T11:59:50.074Z,31.06
2019-06-07T12:02:19.841Z,30.72
2019-06-07T12:04:49.548Z,30.70
2019-06-07T12:07:19.943Z,30.83
2019-06-07T12:09:56.518Z,31.14
2019-06-07T12:12:22.184Z,31.06
2019-06-07T12:14:51.904Z,31.05
2019-06-07T12:17:21.607Z,31.47
2019-06-07T12:19:51.374Z,31.07
2019-06-07T12:22:21.080Z,31.26
2019-06-07T12:24:50.902Z,31.29
2019-06-07T12:27:21.129Z,31.03
2019-06-07T12:29:50.888Z,30.76
2019-06-07T12:32:21.616Z,30.82
2019-06-07T12:34:51.614Z,31.29
2019-06-07T12:37:28.369Z,31.62
2019-06-07T12:39:52.811Z,31.15
2019-06-07T12:42:22.791Z,29.86
2019-06-07T12:44:52.655Z,28.63
2019-06-07T12:47:23.271Z,27.84
2019-06-07T12:49:53.244Z,27.29
2019-06-07T12:52:24.571Z,27.04
2019-06-07T12:54:54.402Z,26.67
2019-06-07T12:57:24.277Z,26.48
2019-06-07T12:59:54.029Z,26.42
2019-06-07T13:02:25.433Z,26.26
2019-06-07T13:04:55.466Z,26.12
2019-06-07T13:07:25.283Z,25.90
2019-06-07T13:09:54.993Z,25.86
2019-06-07T13:12:24.920Z,25.88
2019-06-07T13:14:54.717Z,25.67
2019-06-07T13:17:24.435Z,25.58
2019-06-07T13:19:54.377Z,25.69
2019-06-07T13:22:24.470Z,25.74
2019-06-07T13:24:54.529Z,25.82
2019-06-07T13:27:24.581Z,25.90
2019-06-07T13:29:54.425Z,26.04
2019-06-07T13:32:24.136Z,26.16
2019-06-07T13:34:53.994Z,26.25
2019-06-07T13:37:25.361Z,26.22
2019-06-07T13:39:55.235Z,26.16
2019-06-07T13:42:24.981Z,25.99
2019-06-07T13:44:55.143Z,25.99
2019-06-07T13:47:25.412Z,26.10
2019-06-07T13:49:55.554Z,26.12
2019-06-07T13:52:25.956Z,26.00
2019-06-07T13:54:55.651Z,25.86
2019-06-07T13:57:26.068Z,25.86
2019-06-07T13:59:55.994Z,25.87
2019-06-07T14:02:27.461Z,25.98
2019-06-07T14:04:57.472Z,26.07
2019-06-07T14:07:28.626Z,26.10
2019-06-07T14:09:58.952Z,26.16
2019-06-07T14:12:29.651Z,26.15
2019-06-07T14:14:59.365Z,26.15
2019-06-07T14:17:30.934Z,26.11
2019-06-07T14:20:01.092Z,26.13
2019-06-07T14:22:31.239Z,26.11
2019-06-07T14:25:00.937Z,26.00
2019-06-07T14:27:31.881Z,25.89
2019-06-07T14:30:01.923Z,25.87
2019-06-07T14:32:32.754Z,25.81
2019-06-07T14:35:02.451Z,25.77
2019-06-07T14:37:33.034Z,25.79
2019-06-07T14:40:02.913Z,25.79
2019-06-07T14:42:33.422Z,25.86
2019-06-07T14:45:06.041Z,26.00
2019-06-07T14:47:35.122Z,25.96
2019-06-07T14:50:06.068Z,25.97
2019-06-07T14:52:35.917Z,25.90
2019-06-07T14:55:06.255Z,25.86
2019-06-07T14:57:36.112Z,25.83
2019-06-07T15:00:11.371Z,25.84
2019-06-07T15:02:39.955Z,25.86
2019-06-07T15:05:10.477Z,25.80
2019-06-07T15:07:40.818Z,25.88
2019-06-07T15:10:11.359Z,25.95
2019-06-07T15:12:41.114Z,25.99
2019-06-07T15:15:11.379Z,25.95
2019-06-07T15:17:42.291Z,25.90
2019-06-07T15:20:12.615Z,25.93
2019-06-07T15:22:42.455Z,25.89
2019-06-07T15:25:12.819Z,25.84
2019-06-07T15:27:42.656Z,25.96
2019-06-07T15:30:14.841Z,26.11
2019-06-07T15:32:44.788Z,26.15
2019-06-07T15:35:15.902Z,26.12
2019-06-07T15:37:45.681Z,26.01
2019-06-07T15:40:16.720Z,25.86
2019-06-07T15:42:52.881Z,25.86
2019-06-07T15:45:18.399Z,25.87
2019-06-07T15:47:48.129Z,25.95
2019-06-07T15:50:18.319Z,25.95
2019-06-07T15:52:48.052Z,25.90
2019-06-07T15:55:18.720Z,25.83
2019-06-07T15:57:48.738Z,25.85
2019-06-07T16:00:19.596Z,25.81
2019-06-07T16:02:49.879Z,25.81
2019-06-07T16:05:19.885Z,25.91
2019-06-07T16:07:49.771Z,26.04
2019-06-07T16:10:20.143Z,26.10
2019-06-07T16:13:00.103Z,26.17
2019-06-07T16:15:22.301Z,26.17
2019-06-07T16:17:52.174Z,26.17
2019-06-07T16:20:22.368Z,26.08
2019-06-07T16:22:52.400Z,25.90
2019-06-07T16:25:22.798Z,25.83
2019-06-07T16:27:53.595Z,25.89
2019-06-07T16:30:23.630Z,25.86
2019-06-07T16:32:53.540Z,25.84
2019-06-07T16:35:23.612Z,25.80
2019-06-07T16:37:53.611Z,25.72
2019-06-07T16:40:25.051Z,25.67
2019-06-07T16:42:54.994Z,25.67
2019-06-07T16:45:24.960Z,25.67
2019-06-07T16:47:54.771Z,25.63
2019-06-07T16:50:25.779Z,25.61
2019-06-07T16:52:55.598Z,25.52
2019-06-07T16:55:26.081Z,25.49
2019-06-07T16:57:55.987Z,25.43
2019-06-07T17:00:26.076Z,25.44
2019-06-07T17:02:55.817Z,25.42
2019-06-07T17:05:25.826Z,25.42
2019-06-07T17:07:55.983Z,25.36
2019-06-07T17:10:25.723Z,25.32
2019-06-07T17:12:55.449Z,25.31
2019-06-07T17:15:25.638Z,25.35
2019-06-07T17:17:55.470Z,25.42
2019-06-07T17:20:25.451Z,25.46
2019-06-07T17:22:55.205Z,25.43
2019-06-07T17:25:24.977Z,25.38
2019-06-07T17:27:54.767Z,25.32
2019-06-07T17:30:25.075Z,25.32
2019-06-07T17:32:59.276Z,25.31
2019-06-07T17:35:26.334Z,25.32
2019-06-07T17:37:56.115Z,25.29
2019-06-07T17:40:25.953Z,25.21
2019-06-07T17:42:55.694Z,25.17
2019-06-07T17:45:25.566Z,25.10
2019-06-07T17:47:55.330Z,25.09
2019-06-07T17:50:25.172Z,25.06
2019-06-07T17:52:54.970Z,25.05
2019-06-07T17:55:24.682Z,25.04
2019-06-07T17:57:54.503Z,25.02
2019-06-07T18:00:28.833Z,24.97
2019-06-07T18:02:57.485Z,24.93
2019-06-07T18:05:27.197Z,24.88
2019-06-07T18:07:58.746Z,24.85
2019-06-07T18:10:38.095Z,24.83
2019-06-07T18:13:08.529Z,24.80
2019-06-07T18:15:44.218Z,24.75
2019-06-07T18:18:15.372Z,24.73
2019-06-07T18:20:45.248Z,24.70
2019-06-07T18:23:15.091Z,24.64
2019-06-07T18:25:46.323Z,24.62
2019-06-07T18:28:16.346Z,24.57
2019-06-07T18:30:46.511Z,24.52
2019-06-07T18:33:16.383Z,24.47
2019-06-07T18:35:46.985Z,24.42
2019-06-07T18:38:16.784Z,24.34
2019-06-07T18:40:47.143Z,24.26
2019-06-07T18:43:17.060Z,24.18
2019-06-07T18:45:47.337Z,24.09
2019-06-07T18:48:17.215Z,24.03
2019-06-07T18:50:48.475Z,23.96
2019-06-07T18:53:18.475Z,23.89
2019-06-07T18:55:48.168Z,23.81
2019-06-07T18:58:18.961Z,23.77
2019-06-07T19:00:49.851Z,23.74
2019-06-07T19:03:19.744Z,23.68
2019-06-07T19:05:50.393Z,23.62
2019-06-07T19:08:20.088Z,23.56
2019-06-07T19:10:50.700Z,23.51
2019-06-07T19:13:20.527Z,23.45
2019-06-07T19:15:51.222Z,23.38
2019-06-07T19:18:21.924Z,23.34
2019-06-07T19:20:52.418Z,23.29
2019-06-07T19:23:22.398Z,23.23
2019-06-07T19:25:52.245Z,23.17
2019-06-07T19:28:22.073Z,23.10
2019-06-07T19:30:53.027Z,23.05
2019-06-07T19:33:22.935Z,22.98
2019-06-07T19:35:53.443Z,22.92
2019-06-07T19:38:23.161Z,22.84
2019-06-07T19:40:53.777Z,22.75
2019-06-07T19:43:23.572Z,22.70
2019-06-07T19:45:54.058Z,22.64
2019-06-07T19:48:23.896Z,22.58
2019-06-07T19:50:54.974Z,22.50
2019-06-07T19:53:24.668Z,22.43
2019-06-07T19:55:55.039Z,22.35
2019-06-07T19:58:24.700Z,22.26
2019-06-07T20:00:55.526Z,22.24
2019-06-07T20:03:25.465Z,22.20
2019-06-07T20:05:56.079Z,22.13
2019-06-07T20:08:25.928Z,22.10
2019-06-07T20:10:56.450Z,22.11
2019-06-07T20:13:26.414Z,22.12
2019-06-07T20:15:56.852Z,22.12
2019-06-07T20:18:27.979Z,22.06
2019-06-07T20:20:58.551Z,22.06
2019-06-07T20:23:28.295Z,22.07
2019-06-07T20:25:57.982Z,22.06
2019-06-07T20:28:28.754Z,22.06
2019-06-07T20:30:59.664Z,22.07
2019-06-07T20:33:29.478Z,22.08
2019-06-07T20:35:59.513Z,22.04
2019-06-07T20:38:30.525Z,21.99
2019-06-07T20:41:01.176Z,21.98
2019-06-07T20:43:31.985Z,21.97
2019-06-07T20:46:03.451Z,21.92
2019-06-07T20:48:33.185Z,21.89
2019-06-07T20:51:03.300Z,21.85
2019-06-07T20:53:34.250Z,21.81
2019-06-07T20:56:04.684Z,21.78
2019-06-07T20:58:34.601Z,21.74
2019-06-07T21:01:04.784Z,21.68
2019-06-07T21:03:34.627Z,21.62
2019-06-07T21:06:05.542Z,21.56
2019-06-07T21:08:35.216Z,21.55
2019-06-07T21:11:05.772Z,21.53
2019-06-07T21:13:35.744Z,21.54
2019-06-07T21:16:06.113Z,21.55
2019-06-07T21:18:35.967Z,21.55
2019-06-07T21:21:06.445Z,21.53
2019-06-07T21:23:36.224Z,21.53
2019-06-07T21:26:06.899Z,21.52
2019-06-07T21:28:39.685Z,21.53
2019-06-07T21:31:08.292Z,21.51
2019-06-07T21:33:37.997Z,21.51
2019-06-07T21:36:07.899Z,21.51
2019-06-07T21:38:37.817Z,21.46
2019-06-07T21:41:08.230Z,21.46
2019-06-07T21:43:38.069Z,21.50
2019-06-07T21:46:12.109Z,21.52
2019-06-07T21:48:39.320Z,21.53
2019-06-07T21:51:09.039Z,21.52
2019-06-07T21:53:38.805Z,21.56
2019-06-07T21:56:09.000Z,21.55
2019-06-07T21:58:38.923Z,21.53
2019-06-07T22:01:16.406Z,21.47
2019-06-07T22:03:46.666Z,21.47
2019-06-07T22:06:16.627Z,21.47
2019-06-07T22:08:47.328Z,21.47
2019-06-07T22:11:17.345Z,21.44
2019-06-07T22:13:47.056Z,21.41
2019-06-07T22:16:28.548Z,21.41
2019-06-07T22:18:50.892Z,21.41
2019-06-07T22:21:20.589Z,21.47
2019-06-07T22:23:50.273Z,21.39
2019-06-07T22:26:19.981Z,21.02
2019-06-07T22:28:49.758Z,20.81
2019-06-07T22:31:19.462Z,20.81
2019-06-07T22:33:50.549Z,20.54
2019-06-07T22:36:20.245Z,20.11
2019-06-07T22:38:50.086Z,19.68
2019-06-07T22:41:19.797Z,19.34
2019-06-07T22:43:49.482Z,19.08
2019-06-07T22:46:19.360Z,18.82
2019-06-07T22:48:49.087Z,18.54
2019-06-07T22:51:18.924Z,18.25
2019-06-07T22:53:48.797Z,18.01
2019-06-07T22:56:27.862Z,17.81
2019-06-07T22:58:58.137Z,17.68
2019-06-07T23:01:28.150Z,17.54
2019-06-07T23:03:57.846Z,17.36
2019-06-07T23:06:27.549Z,17.19
2019-06-07T23:08:57.268Z,17.09
2019-06-07T23:11:26.980Z,17.03
2019-06-07T23:13:56.860Z,17.03
2019-06-07T23:16:26.698Z,17.02
2019-06-07T23:18:56.522Z,17.00
2019-06-07T23:21:29.559Z,17.01
2019-06-07T23:24:00.206Z,17.00
2019-06-07T23:26:29.952Z,17.02
2019-06-07T23:28:59.675Z,17.04
2019-06-07T23:31:29.398Z,16.99
2019-06-07T23:33:59.192Z,16.97
2019-06-07T23:36:28.879Z,16.98
2019-06-07T23:38:58.751Z,17.00
2019-06-07T23:41:28.470Z,16.95
2019-06-07T23:43:58.368Z,16.91
2019-06-07T23:46:28.078Z,16.91
2019-06-07T23:48:57.789Z,16.93
2019-06-07T23:51:27.511Z,16.93
2019-06-07T23:53:57.233Z,16.93
2019-06-07T23:56:26.990Z,16.88
2019-06-07T23:58:56.824Z,16.84
